sensor_id;sensor_type;location;lat;lon;timestamp;P1;durP1;ratioP1;P2;durP2;ratioP2
7881;SDS011;3986;41.884;23.466;2024-02-16T00:00:05;63.83;;;24.77;;
7881;SDS011;3986;41.884;23.466;2024-02-16T00:02:32;68.50;;;23.50;;
7881;SDS011;3986;41.884;23.466;2024-02-16T00:04:59;67.40;;;23.83;;
7881;SDS011;3986;41.884;23.466;2024-02-16T00:07:26;82.07;;;24.80;;
7881;SDS011;3986;41.884;23.466;2024-02-16T00:09:53;68.50;;;23.27;;
7881;SDS011;3986;41.884;23.466;2024-02-16T00:12:19;85.43;;;23.50;;
7881;SDS011;3986;41.884;23.466;2024-02-16T00:14:46;80.20;;;23.87;;
7881;SDS011;3986;41.884;23.466;2024-02-16T00:17:14;93.57;;;27.30;;
7881;SDS011;3986;41.884;23.466;2024-02-16T00:19:41;83.20;;;29.00;;
7881;SDS011;3986;41.884;23.466;2024-02-16T00:22:08;78.00;;;27.13;;
7881;SDS011;3986;41.884;23.466;2024-02-16T00:24:35;66.87;;;26.27;;
7881;SDS011;3986;41.884;23.466;2024-02-16T00:27:02;79.47;;;24.30;;
7881;SDS011;3986;41.884;23.466;2024-02-16T00:29:30;72.33;;;24.90;;
7881;SDS011;3986;41.884;23.466;2024-02-16T00:31:57;79.87;;;25.10;;
7881;SDS011;3986;41.884;23.466;2024-02-16T00:34:25;74.43;;;26.80;;
7881;SDS011;3986;41.884;23.466;2024-02-16T00:36:53;84.77;;;26.13;;
7881;SDS011;3986;41.884;23.466;2024-02-16T00:39:20;72.60;;;26.87;;
7881;SDS011;3986;41.884;23.466;2024-02-16T00:41:48;84.27;;;27.63;;
7881;SDS011;3986;41.884;23.466;2024-02-16T00:44:14;91.73;;;28.00;;
7881;SDS011;3986;41.884;23.466;2024-02-16T00:46:41;81.77;;;25.73;;
7881;SDS011;3986;41.884;23.466;2024-02-16T00:49:08;66.80;;;26.20;;
7881;SDS011;3986;41.884;23.466;2024-02-16T00:51:36;79.10;;;26.43;;
7881;SDS011;3986;41.884;23.466;2024-02-16T00:54:03;65.97;;;27.20;;
7881;SDS011;3986;41.884;23.466;2024-02-16T00:56:30;75.43;;;27.80;;
7881;SDS011;3986;41.884;23.466;2024-02-16T00:58:57;83.37;;;29.77;;
7881;SDS011;3986;41.884;23.466;2024-02-16T01:01:24;72.20;;;27.03;;
7881;SDS011;3986;41.884;23.466;2024-02-16T01:03:51;78.10;;;30.20;;
7881;SDS011;3986;41.884;23.466;2024-02-16T01:06:18;76.93;;;28.47;;
7881;SDS011;3986;41.884;23.466;2024-02-16T01:08:47;76.40;;;29.53;;
7881;SDS011;3986;41.884;23.466;2024-02-16T01:11:14;73.60;;;31.10;;
7881;SDS011;3986;41.884;23.466;2024-02-16T01:13:40;72.60;;;31.97;;
7881;SDS011;3986;41.884;23.466;2024-02-16T01:16:08;75.73;;;33.50;;
7881;SDS011;3986;41.884;23.466;2024-02-16T01:18:35;84.77;;;34.10;;
7881;SDS011;3986;41.884;23.466;2024-02-16T01:21:02;86.27;;;39.10;;
7881;SDS011;3986;41.884;23.466;2024-02-16T01:23:29;76.83;;;34.83;;
7881;SDS011;3986;41.884;23.466;2024-02-16T01:25:57;87.23;;;33.73;;
7881;SDS011;3986;41.884;23.466;2024-02-16T01:28:24;84.37;;;34.17;;
7881;SDS011;3986;41.884;23.466;2024-02-16T01:30:51;78.17;;;31.70;;
7881;SDS011;3986;41.884;23.466;2024-02-16T01:33:17;80.07;;;30.97;;
7881;SDS011;3986;41.884;23.466;2024-02-16T01:35:45;98.20;;;41.83;;
7881;SDS011;3986;41.884;23.466;2024-02-16T01:38:12;93.27;;;40.17;;
7881;SDS011;3986;41.884;23.466;2024-02-16T01:40:39;99.13;;;42.77;;
7881;SDS011;3986;41.884;23.466;2024-02-16T01:43:07;99.40;;;45.90;;
7881;SDS011;3986;41.884;23.466;2024-02-16T01:45:34;97.63;;;49.77;;
7881;SDS011;3986;41.884;23.466;2024-02-16T01:48:01;107.00;;;49.57;;
7881;SDS011;3986;41.884;23.466;2024-02-16T01:50:27;103.67;;;46.37;;
7881;SDS011;3986;41.884;23.466;2024-02-16T01:52:54;94.37;;;42.27;;
7881;SDS011;3986;41.884;23.466;2024-02-16T01:55:21;99.83;;;39.27;;
7881;SDS011;3986;41.884;23.466;2024-02-16T01:57:49;92.93;;;39.43;;
7881;SDS011;3986;41.884;23.466;2024-02-16T02:00:17;85.03;;;36.57;;
7881;SDS011;3986;41.884;23.466;2024-02-16T02:02:44;91.37;;;38.27;;
7881;SDS011;3986;41.884;23.466;2024-02-16T02:05:12;81.27;;;35.03;;
7881;SDS011;3986;41.884;23.466;2024-02-16T02:07:40;81.43;;;34.50;;
7881;SDS011;3986;41.884;23.466;2024-02-16T02:10:07;71.07;;;31.60;;
7881;SDS011;3986;41.884;23.466;2024-02-16T02:12:37;69.13;;;29.30;;
7881;SDS011;3986;41.884;23.466;2024-02-16T02:15:04;73.80;;;26.97;;
7881;SDS011;3986;41.884;23.466;2024-02-16T02:17:33;59.53;;;22.87;;
7881;SDS011;3986;41.884;23.466;2024-02-16T02:20:00;67.30;;;26.13;;
7881;SDS011;3986;41.884;23.466;2024-02-16T02:22:30;80.43;;;31.23;;
7881;SDS011;3986;41.884;23.466;2024-02-16T02:24:56;87.20;;;29.13;;
7881;SDS011;3986;41.884;23.466;2024-02-16T02:27:23;80.17;;;29.57;;
7881;SDS011;3986;41.884;23.466;2024-02-16T02:29:50;80.60;;;32.37;;
7881;SDS011;3986;41.884;23.466;2024-02-16T02:32:17;73.70;;;31.23;;
7881;SDS011;3986;41.884;23.466;2024-02-16T02:34:44;83.83;;;35.20;;
7881;SDS011;3986;41.884;23.466;2024-02-16T02:37:11;86.03;;;38.47;;
7881;SDS011;3986;41.884;23.466;2024-02-16T02:39:39;75.90;;;37.13;;
7881;SDS011;3986;41.884;23.466;2024-02-16T02:42:06;91.43;;;37.77;;
7881;SDS011;3986;41.884;23.466;2024-02-16T02:44:33;94.87;;;39.87;;
7881;SDS011;3986;41.884;23.466;2024-02-16T02:47:00;98.37;;;40.83;;
7881;SDS011;3986;41.884;23.466;2024-02-16T02:49:27;89.97;;;40.83;;
7881;SDS011;3986;41.884;23.466;2024-02-16T02:51:54;96.83;;;38.17;;
7881;SDS011;3986;41.884;23.466;2024-02-16T02:54:21;93.90;;;38.53;;
7881;SDS011;3986;41.884;23.466;2024-02-16T02:56:49;79.23;;;37.67;;
7881;SDS011;3986;41.884;23.466;2024-02-16T02:59:16;92.83;;;45.63;;
7881;SDS011;3986;41.884;23.466;2024-02-16T03:01:42;97.67;;;47.83;;
7881;SDS011;3986;41.884;23.466;2024-02-16T03:04:10;94.67;;;44.27;;
7881;SDS011;3986;41.884;23.466;2024-02-16T03:06:37;113.23;;;46.30;;
7881;SDS011;3986;41.884;23.466;2024-02-16T03:09:04;103.63;;;44.87;;
7881;SDS011;3986;41.884;23.466;2024-02-16T03:11:31;97.73;;;43.30;;
7881;SDS011;3986;41.884;23.466;2024-02-16T03:13:59;93.50;;;39.57;;
7881;SDS011;3986;41.884;23.466;2024-02-16T03:16:26;100.33;;;40.73;;
7881;SDS011;3986;41.884;23.466;2024-02-16T03:18:55;93.87;;;39.83;;
7881;SDS011;3986;41.884;23.466;2024-02-16T03:21:22;96.57;;;43.03;;
7881;SDS011;3986;41.884;23.466;2024-02-16T03:23:48;93.43;;;39.90;;
7881;SDS011;3986;41.884;23.466;2024-02-16T03:26:15;79.77;;;39.33;;
7881;SDS011;3986;41.884;23.466;2024-02-16T03:28:43;98.10;;;38.73;;
7881;SDS011;3986;41.884;23.466;2024-02-16T03:31:18;106.47;;;46.93;;
7881;SDS011;3986;41.884;23.466;2024-02-16T03:33:45;106.23;;;51.20;;
7881;SDS011;3986;41.884;23.466;2024-02-16T03:36:12;93.10;;;48.67;;
7881;SDS011;3986;41.884;23.466;2024-02-16T03:38:40;99.13;;;47.53;;
7881;SDS011;3986;41.884;23.466;2024-02-16T03:41:08;96.27;;;44.83;;
7881;SDS011;3986;41.884;23.466;2024-02-16T03:43:38;107.50;;;49.03;;
7881;SDS011;3986;41.884;23.466;2024-02-16T03:46:04;101.87;;;48.00;;
7881;SDS011;3986;41.884;23.466;2024-02-16T03:48:32;111.50;;;50.10;;
7881;SDS011;3986;41.884;23.466;2024-02-16T03:50:59;101.00;;;49.20;;
7881;SDS011;3986;41.884;23.466;2024-02-16T03:53:28;101.97;;;47.33;;
7881;SDS011;3986;41.884;23.466;2024-02-16T03:55:55;100.83;;;44.77;;
7881;SDS011;3986;41.884;23.466;2024-02-16T03:58:22;99.90;;;46.77;;
7881;SDS011;3986;41.884;23.466;2024-02-16T04:00:49;97.50;;;44.87;;
7881;SDS011;3986;41.884;23.466;2024-02-16T04:03:16;94.20;;;46.23;;
7881;SDS011;3986;41.884;23.466;2024-02-16T04:05:44;96.37;;;47.30;;
7881;SDS011;3986;41.884;23.466;2024-02-16T04:08:11;116.30;;;50.10;;
7881;SDS011;3986;41.884;23.466;2024-02-16T04:10:38;111.70;;;51.07;;
7881;SDS011;3986;41.884;23.466;2024-02-16T04:13:04;111.63;;;59.50;;
7881;SDS011;3986;41.884;23.466;2024-02-16T04:15:31;193.30;;;112.80;;
7881;SDS011;3986;41.884;23.466;2024-02-16T04:17:58;123.67;;;68.53;;
7881;SDS011;3986;41.884;23.466;2024-02-16T04:20:25;112.63;;;57.67;;
7881;SDS011;3986;41.884;23.466;2024-02-16T04:22:53;106.80;;;55.57;;
7881;SDS011;3986;41.884;23.466;2024-02-16T04:25:19;110.57;;;54.73;;
7881;SDS011;3986;41.884;23.466;2024-02-16T04:27:46;101.00;;;51.20;;
7881;SDS011;3986;41.884;23.466;2024-02-16T04:30:13;110.80;;;51.93;;
7881;SDS011;3986;41.884;23.466;2024-02-16T04:32:40;101.73;;;50.87;;
7881;SDS011;3986;41.884;23.466;2024-02-16T04:35:07;108.33;;;56.37;;
7881;SDS011;3986;41.884;23.466;2024-02-16T04:37:37;124.23;;;58.03;;
7881;SDS011;3986;41.884;23.466;2024-02-16T04:40:06;138.87;;;66.10;;
7881;SDS011;3986;41.884;23.466;2024-02-16T04:42:37;108.87;;;59.70;;
7881;SDS011;3986;41.884;23.466;2024-02-16T04:45:05;114.97;;;57.17;;
7881;SDS011;3986;41.884;23.466;2024-02-16T04:47:33;126.23;;;61.53;;
7881;SDS011;3986;41.884;23.466;2024-02-16T04:50:00;119.53;;;63.77;;
7881;SDS011;3986;41.884;23.466;2024-02-16T04:52:27;108.90;;;60.93;;
7881;SDS011;3986;41.884;23.466;2024-02-16T04:54:54;120.07;;;65.33;;
7881;SDS011;3986;41.884;23.466;2024-02-16T04:57:22;123.00;;;69.10;;
7881;SDS011;3986;41.884;23.466;2024-02-16T04:59:49;126.77;;;69.53;;
7881;SDS011;3986;41.884;23.466;2024-02-16T05:02:16;152.63;;;77.13;;
7881;SDS011;3986;41.884;23.466;2024-02-16T05:04:43;137.07;;;74.20;;
7881;SDS011;3986;41.884;23.466;2024-02-16T05:07:10;125.63;;;67.60;;
7881;SDS011;3986;41.884;23.466;2024-02-16T05:09:37;133.63;;;69.07;;
7881;SDS011;3986;41.884;23.466;2024-02-16T05:12:05;132.33;;;68.10;;
7881;SDS011;3986;41.884;23.466;2024-02-16T05:14:35;111.37;;;54.23;;
7881;SDS011;3986;41.884;23.466;2024-02-16T05:17:01;104.60;;;48.87;;
7881;SDS011;3986;41.884;23.466;2024-02-16T05:19:31;99.00;;;46.83;;
7881;SDS011;3986;41.884;23.466;2024-02-16T05:21:58;81.83;;;37.77;;
7881;SDS011;3986;41.884;23.466;2024-02-16T05:24:25;87.90;;;43.37;;
7881;SDS011;3986;41.884;23.466;2024-02-16T05:26:52;128.47;;;66.43;;
7881;SDS011;3986;41.884;23.466;2024-02-16T05:29:19;128.00;;;81.87;;
7881;SDS011;3986;41.884;23.466;2024-02-16T05:31:47;131.53;;;79.93;;
7881;SDS011;3986;41.884;23.466;2024-02-16T05:34:17;158.07;;;85.03;;
7881;SDS011;3986;41.884;23.466;2024-02-16T05:36:44;133.80;;;81.83;;
7881;SDS011;3986;41.884;23.466;2024-02-16T05:39:10;162.20;;;87.10;;
7881;SDS011;3986;41.884;23.466;2024-02-16T05:41:51;137.83;;;85.50;;
7881;SDS011;3986;41.884;23.466;2024-02-16T05:44:18;132.83;;;75.30;;
7881;SDS011;3986;41.884;23.466;2024-02-16T05:46:45;180.07;;;99.40;;
7881;SDS011;3986;41.884;23.466;2024-02-16T05:49:14;133.87;;;65.13;;
7881;SDS011;3986;41.884;23.466;2024-02-16T05:51:41;102.97;;;41.43;;
7881;SDS011;3986;41.884;23.466;2024-02-16T05:54:25;86.23;;;40.57;;
7881;SDS011;3986;41.884;23.466;2024-02-16T05:56:52;110.23;;;52.53;;
7881;SDS011;3986;41.884;23.466;2024-02-16T05:59:18;127.90;;;57.03;;
7881;SDS011;3986;41.884;23.466;2024-02-16T06:01:45;122.30;;;60.03;;
7881;SDS011;3986;41.884;23.466;2024-02-16T06:04:13;109.37;;;55.50;;
7881;SDS011;3986;41.884;23.466;2024-02-16T06:06:40;138.37;;;73.10;;
7881;SDS011;3986;41.884;23.466;2024-02-16T06:09:07;145.27;;;76.60;;
7881;SDS011;3986;41.884;23.466;2024-02-16T06:11:36;134.27;;;73.40;;
7881;SDS011;3986;41.884;23.466;2024-02-16T06:14:03;134.03;;;69.67;;
7881;SDS011;3986;41.884;23.466;2024-02-16T06:16:29;130.73;;;67.57;;
7881;SDS011;3986;41.884;23.466;2024-02-16T06:18:56;135.27;;;71.70;;
7881;SDS011;3986;41.884;23.466;2024-02-16T06:21:24;103.77;;;54.53;;
7881;SDS011;3986;41.884;23.466;2024-02-16T06:23:51;94.87;;;49.47;;
7881;SDS011;3986;41.884;23.466;2024-02-16T06:26:18;107.97;;;49.53;;
7881;SDS011;3986;41.884;23.466;2024-02-16T06:28:45;126.23;;;55.20;;
7881;SDS011;3986;41.884;23.466;2024-02-16T06:31:12;127.30;;;53.27;;
7881;SDS011;3986;41.884;23.466;2024-02-16T06:33:39;151.83;;;58.33;;
7881;SDS011;3986;41.884;23.466;2024-02-16T06:36:06;121.47;;;60.37;;
7881;SDS011;3986;41.884;23.466;2024-02-16T06:38:36;113.97;;;53.77;;
7881;SDS011;3986;41.884;23.466;2024-02-16T06:41:03;104.07;;;48.07;;
7881;SDS011;3986;41.884;23.466;2024-02-16T06:43:29;118.50;;;61.20;;
7881;SDS011;3986;41.884;23.466;2024-02-16T06:45:56;109.87;;;54.23;;
7881;SDS011;3986;41.884;23.466;2024-02-16T06:48:23;119.43;;;54.97;;
7881;SDS011;3986;41.884;23.466;2024-02-16T06:50:50;111.20;;;57.83;;
7881;SDS011;3986;41.884;23.466;2024-02-16T06:53:17;116.83;;;59.83;;
7881;SDS011;3986;41.884;23.466;2024-02-16T06:55:45;165.83;;;74.60;;
7881;SDS011;3986;41.884;23.466;2024-02-16T06:58:11;168.00;;;95.73;;
7881;SDS011;3986;41.884;23.466;2024-02-16T07:00:38;177.33;;;94.00;;
7881;SDS011;3986;41.884;23.466;2024-02-16T07:03:07;170.30;;;89.90;;
7881;SDS011;3986;41.884;23.466;2024-02-16T07:05:34;148.07;;;91.70;;
7881;SDS011;3986;41.884;23.466;2024-02-16T07:08:01;173.87;;;79.37;;
7881;SDS011;3986;41.884;23.466;2024-02-16T07:10:29;141.10;;;75.60;;
7881;SDS011;3986;41.884;23.466;2024-02-16T07:12:57;135.63;;;74.57;;
7881;SDS011;3986;41.884;23.466;2024-02-16T07:15:24;131.10;;;77.83;;
7881;SDS011;3986;41.884;23.466;2024-02-16T07:17:51;141.27;;;89.00;;
7881;SDS011;3986;41.884;23.466;2024-02-16T07:20:18;174.60;;;101.07;;
7881;SDS011;3986;41.884;23.466;2024-02-16T07:22:45;169.90;;;108.30;;
7881;SDS011;3986;41.884;23.466;2024-02-16T07:25:12;159.07;;;102.43;;
7881;SDS011;3986;41.884;23.466;2024-02-16T07:27:38;154.20;;;100.63;;
7881;SDS011;3986;41.884;23.466;2024-02-16T07:30:08;236.50;;;111.27;;
7881;SDS011;3986;41.884;23.466;2024-02-16T07:32:36;149.53;;;106.37;;
7881;SDS011;3986;41.884;23.466;2024-02-16T07:35:03;149.13;;;108.10;;
7881;SDS011;3986;41.884;23.466;2024-02-16T07:37:30;173.83;;;112.60;;
7881;SDS011;3986;41.884;23.466;2024-02-16T07:39:57;174.03;;;108.67;;
7881;SDS011;3986;41.884;23.466;2024-02-16T07:42:24;165.07;;;103.50;;
7881;SDS011;3986;41.884;23.466;2024-02-16T07:44:52;170.47;;;109.70;;
7881;SDS011;3986;41.884;23.466;2024-02-16T07:47:21;175.53;;;106.40;;
7881;SDS011;3986;41.884;23.466;2024-02-16T07:49:47;182.17;;;105.40;;
7881;SDS011;3986;41.884;23.466;2024-02-16T07:52:14;190.23;;;103.67;;
7881;SDS011;3986;41.884;23.466;2024-02-16T07:54:41;148.13;;;100.87;;
7881;SDS011;3986;41.884;23.466;2024-02-16T07:57:08;153.93;;;96.27;;
7881;SDS011;3986;41.884;23.466;2024-02-16T07:59:34;154.27;;;100.73;;
7881;SDS011;3986;41.884;23.466;2024-02-16T08:02:01;153.77;;;100.23;;
7881;SDS011;3986;41.884;23.466;2024-02-16T08:04:29;203.13;;;102.73;;
7881;SDS011;3986;41.884;23.466;2024-02-16T08:06:56;161.30;;;100.20;;
7881;SDS011;3986;41.884;23.466;2024-02-16T08:09:24;172.87;;;101.23;;
7881;SDS011;3986;41.884;23.466;2024-02-16T08:11:50;171.40;;;98.73;;
7881;SDS011;3986;41.884;23.466;2024-02-16T08:14:17;152.50;;;95.37;;
7881;SDS011;3986;41.884;23.466;2024-02-16T08:16:44;157.80;;;98.73;;
7881;SDS011;3986;41.884;23.466;2024-02-16T08:19:11;142.40;;;91.40;;
7881;SDS011;3986;41.884;23.466;2024-02-16T08:21:40;148.67;;;95.73;;
7881;SDS011;3986;41.884;23.466;2024-02-16T08:24:07;152.97;;;98.53;;
7881;SDS011;3986;41.884;23.466;2024-02-16T08:26:34;143.83;;;86.67;;
7881;SDS011;3986;41.884;23.466;2024-02-16T08:29:00;125.67;;;79.30;;
7881;SDS011;3986;41.884;23.466;2024-02-16T08:31:27;104.00;;;73.70;;
7881;SDS011;3986;41.884;23.466;2024-02-16T08:33:54;130.47;;;75.07;;
7881;SDS011;3986;41.884;23.466;2024-02-16T08:36:21;137.70;;;72.63;;
7881;SDS011;3986;41.884;23.466;2024-02-16T08:38:54;119.87;;;75.67;;
7881;SDS011;3986;41.884;23.466;2024-02-16T08:41:21;110.15;;;66.05;;
7881;SDS011;3986;41.884;23.466;2024-02-16T08:43:49;113.72;;;67.75;;
7881;SDS011;3986;41.884;23.466;2024-02-16T08:46:16;134.20;;;71.97;;
7881;SDS011;3986;41.884;23.466;2024-02-16T08:48:44;108.05;;;57.40;;
7881;SDS011;3986;41.884;23.466;2024-02-16T08:51:12;110.63;;;53.85;;
7881;SDS011;3986;41.884;23.466;2024-02-16T08:53:39;144.15;;;56.15;;
7881;SDS011;3986;41.884;23.466;2024-02-16T08:56:10;88.90;;;51.88;;
7881;SDS011;3986;41.884;23.466;2024-02-16T08:58:37;135.13;;;47.03;;
7881;SDS011;3986;41.884;23.466;2024-02-16T09:01:04;88.72;;;39.28;;
7881;SDS011;3986;41.884;23.466;2024-02-16T09:03:31;76.45;;;36.22;;
7881;SDS011;3986;41.884;23.466;2024-02-16T09:06:03;68.63;;;34.67;;
7881;SDS011;3986;41.884;23.466;2024-02-16T09:08:30;79.00;;;34.97;;
7881;SDS011;3986;41.884;23.466;2024-02-16T09:10:58;91.72;;;25.05;;
7881;SDS011;3986;41.884;23.466;2024-02-16T09:13:26;66.97;;;31.88;;
7881;SDS011;3986;41.884;23.466;2024-02-16T09:15:53;69.25;;;24.77;;
7881;SDS011;3986;41.884;23.466;2024-02-16T09:18:20;75.13;;;23.50;;
7881;SDS011;3986;41.884;23.466;2024-02-16T09:20:47;94.60;;;26.52;;
7881;SDS011;3986;41.884;23.466;2024-02-16T09:23:14;80.68;;;24.05;;
7881;SDS011;3986;41.884;23.466;2024-02-16T09:25:40;103.68;;;23.55;;
7881;SDS011;3986;41.884;23.466;2024-02-16T09:28:08;67.72;;;21.40;;
7881;SDS011;3986;41.884;23.466;2024-02-16T09:30:37;73.15;;;18.95;;
7881;SDS011;3986;41.884;23.466;2024-02-16T09:33:04;80.10;;;19.23;;
7881;SDS011;3986;41.884;23.466;2024-02-16T09:35:32;48.78;;;14.85;;
7881;SDS011;3986;41.884;23.466;2024-02-16T09:37:59;66.93;;;14.35;;
7881;SDS011;3986;41.884;23.466;2024-02-16T09:40:25;63.50;;;11.13;;
7881;SDS011;3986;41.884;23.466;2024-02-16T09:42:52;50.28;;;12.13;;
7881;SDS011;3986;41.884;23.466;2024-02-16T09:45:19;64.25;;;11.27;;
7881;SDS011;3986;41.884;23.466;2024-02-16T09:47:48;57.70;;;9.65;;
7881;SDS011;3986;41.884;23.466;2024-02-16T09:50:16;75.03;;;14.30;;
7881;SDS011;3986;41.884;23.466;2024-02-16T09:52:46;58.88;;;11.10;;
7881;SDS011;3986;41.884;23.466;2024-02-16T09:55:14;96.40;;;16.25;;
7881;SDS011;3986;41.884;23.466;2024-02-16T09:57:41;87.90;;;32.42;;
7881;SDS011;3986;41.884;23.466;2024-02-16T10:00:09;43.90;;;16.25;;
7881;SDS011;3986;41.884;23.466;2024-02-16T10:02:40;50.35;;;16.63;;
7881;SDS011;3986;41.884;23.466;2024-02-16T10:05:14;77.10;;;16.38;;
7881;SDS011;3986;41.884;23.466;2024-02-16T10:07:42;148.77;;;21.10;;
7881;SDS011;3986;41.884;23.466;2024-02-16T10:10:19;81.35;;;26.70;;
7881;SDS011;3986;41.884;23.466;2024-02-16T10:12:47;129.57;;;18.23;;
7881;SDS011;3986;41.884;23.466;2024-02-16T10:15:18;85.82;;;13.90;;
7881;SDS011;3986;41.884;23.466;2024-02-16T10:17:56;56.03;;;11.82;;
7881;SDS011;3986;41.884;23.466;2024-02-16T10:20:25;125.18;;;18.15;;
7881;SDS011;3986;41.884;23.466;2024-02-16T10:23:02;62.88;;;13.18;;
7881;SDS011;3986;41.884;23.466;2024-02-16T10:25:33;63.90;;;10.27;;
7881;SDS011;3986;41.884;23.466;2024-02-16T10:28:01;69.50;;;11.75;;
7881;SDS011;3986;41.884;23.466;2024-02-16T10:30:30;83.18;;;14.90;;
7881;SDS011;3986;41.884;23.466;2024-02-16T10:33:02;91.63;;;14.65;;
7881;SDS011;3986;41.884;23.466;2024-02-16T10:35:30;115.38;;;16.17;;
7881;SDS011;3986;41.884;23.466;2024-02-16T10:37:59;70.40;;;16.90;;
7881;SDS011;3986;41.884;23.466;2024-02-16T10:40:30;67.85;;;10.57;;
7881;SDS011;3986;41.884;23.466;2024-02-16T10:42:59;67.18;;;13.77;;
7881;SDS011;3986;41.884;23.466;2024-02-16T10:45:31;95.20;;;17.52;;
7881;SDS011;3986;41.884;23.466;2024-02-16T10:48:00;77.45;;;19.73;;
7881;SDS011;3986;41.884;23.466;2024-02-16T10:50:27;48.47;;;7.22;;
7881;SDS011;3986;41.884;23.466;2024-02-16T10:52:55;92.47;;;11.63;;
7881;SDS011;3986;41.884;23.466;2024-02-16T10:55:25;73.70;;;12.85;;
7881;SDS011;3986;41.884;23.466;2024-02-16T10:57:53;127.40;;;25.27;;
7881;SDS011;3986;41.884;23.466;2024-02-16T11:00:24;85.65;;;12.27;;
7881;SDS011;3986;41.884;23.466;2024-02-16T11:02:52;69.90;;;9.93;;
7881;SDS011;3986;41.884;23.466;2024-02-16T11:05:31;77.78;;;11.10;;
7881;SDS011;3986;41.884;23.466;2024-02-16T11:08:03;72.63;;;12.68;;
7881;SDS011;3986;41.884;23.466;2024-02-16T11:10:31;64.53;;;8.05;;
7881;SDS011;3986;41.884;23.466;2024-02-16T11:13:01;88.43;;;13.77;;
7881;SDS011;3986;41.884;23.466;2024-02-16T11:15:30;44.75;;;7.70;;
7881;SDS011;3986;41.884;23.466;2024-02-16T11:17:58;78.85;;;10.77;;
7881;SDS011;3986;41.884;23.466;2024-02-16T11:20:26;97.78;;;13.43;;
7881;SDS011;3986;41.884;23.466;2024-02-16T11:22:53;65.45;;;9.88;;
7881;SDS011;3986;41.884;23.466;2024-02-16T11:25:34;113.22;;;12.82;;
7881;SDS011;3986;41.884;23.466;2024-02-16T11:28:03;63.70;;;9.93;;
7881;SDS011;3986;41.884;23.466;2024-02-16T11:30:32;81.53;;;13.35;;
7881;SDS011;3986;41.884;23.466;2024-02-16T11:32:59;67.40;;;10.93;;
7881;SDS011;3986;41.884;23.466;2024-02-16T11:35:26;77.65;;;14.80;;
7881;SDS011;3986;41.884;23.466;2024-02-16T11:37:54;86.53;;;13.98;;
7881;SDS011;3986;41.884;23.466;2024-02-16T11:40:23;64.57;;;12.30;;
7881;SDS011;3986;41.884;23.466;2024-02-16T11:42:57;88.80;;;15.23;;
7881;SDS011;3986;41.884;23.466;2024-02-16T11:45:24;64.63;;;9.38;;
7881;SDS011;3986;41.884;23.466;2024-02-16T11:47:51;123.50;;;15.57;;
7881;SDS011;3986;41.884;23.466;2024-02-16T11:50:18;77.43;;;11.15;;
7881;SDS011;3986;41.884;23.466;2024-02-16T11:52:45;105.72;;;17.13;;
7881;SDS011;3986;41.884;23.466;2024-02-16T11:55:13;91.43;;;14.45;;
7881;SDS011;3986;41.884;23.466;2024-02-16T11:57:42;73.93;;;18.38;;
7881;SDS011;3986;41.884;23.466;2024-02-16T12:00:13;114.57;;;15.00;;
7881;SDS011;3986;41.884;23.466;2024-02-16T12:02:41;87.78;;;14.63;;
7881;SDS011;3986;41.884;23.466;2024-02-16T12:05:07;73.20;;;13.07;;
7881;SDS011;3986;41.884;23.466;2024-02-16T12:07:36;108.10;;;14.05;;
7881;SDS011;3986;41.884;23.466;2024-02-16T12:10:05;79.22;;;15.18;;
7881;SDS011;3986;41.884;23.466;2024-02-16T12:12:34;87.00;;;12.85;;
7881;SDS011;3986;41.884;23.466;2024-02-16T12:15:03;64.63;;;11.98;;
7881;SDS011;3986;41.884;23.466;2024-02-16T12:17:33;67.00;;;12.38;;
7881;SDS011;3986;41.884;23.466;2024-02-16T12:19:59;57.38;;;12.50;;
7881;SDS011;3986;41.884;23.466;2024-02-16T12:22:27;60.53;;;11.90;;
7881;SDS011;3986;41.884;23.466;2024-02-16T12:24:54;76.53;;;12.05;;
7881;SDS011;3986;41.884;23.466;2024-02-16T12:27:21;64.07;;;13.95;;
7881;SDS011;3986;41.884;23.466;2024-02-16T12:29:48;72.53;;;13.40;;
7881;SDS011;3986;41.884;23.466;2024-02-16T12:32:16;64.25;;;12.95;;
7881;SDS011;3986;41.884;23.466;2024-02-16T12:34:44;95.63;;;14.35;;
7881;SDS011;3986;41.884;23.466;2024-02-16T12:37:11;83.22;;;12.20;;
7881;SDS011;3986;41.884;23.466;2024-02-16T12:39:38;51.90;;;12.38;;
7881;SDS011;3986;41.884;23.466;2024-02-16T12:42:06;79.55;;;24.35;;
7881;SDS011;3986;41.884;23.466;2024-02-16T12:44:33;61.75;;;9.75;;
7881;SDS011;3986;41.884;23.466;2024-02-16T12:47:00;134.35;;;17.60;;
7881;SDS011;3986;41.884;23.466;2024-02-16T12:49:28;57.03;;;9.90;;
7881;SDS011;3986;41.884;23.466;2024-02-16T12:51:54;65.32;;;11.38;;
7881;SDS011;3986;41.884;23.466;2024-02-16T12:54:21;95.50;;;14.07;;
7881;SDS011;3986;41.884;23.466;2024-02-16T12:56:49;93.00;;;14.93;;
7881;SDS011;3986;41.884;23.466;2024-02-16T12:59:16;86.95;;;14.07;;
7881;SDS011;3986;41.884;23.466;2024-02-16T13:01:43;74.93;;;12.63;;
7881;SDS011;3986;41.884;23.466;2024-02-16T13:04:11;60.83;;;11.43;;
7881;SDS011;3986;41.884;23.466;2024-02-16T13:06:47;73.72;;;11.38;;
7881;SDS011;3986;41.884;23.466;2024-02-16T13:09:14;62.00;;;12.40;;
7881;SDS011;3986;41.884;23.466;2024-02-16T13:11:41;107.78;;;15.57;;
7881;SDS011;3986;41.884;23.466;2024-02-16T13:14:08;84.40;;;15.43;;
7881;SDS011;3986;41.884;23.466;2024-02-16T13:16:34;80.65;;;14.15;;
7881;SDS011;3986;41.884;23.466;2024-02-16T13:19:01;59.08;;;13.13;;
7881;SDS011;3986;41.884;23.466;2024-02-16T13:21:28;66.97;;;14.55;;
7881;SDS011;3986;41.884;23.466;2024-02-16T13:23:56;52.88;;;11.73;;
7881;SDS011;3986;41.884;23.466;2024-02-16T13:26:23;86.35;;;14.60;;
7881;SDS011;3986;41.884;23.466;2024-02-16T13:28:49;97.85;;;14.25;;
7881;SDS011;3986;41.884;23.466;2024-02-16T13:31:17;70.38;;;12.98;;
7881;SDS011;3986;41.884;23.466;2024-02-16T13:33:44;73.07;;;14.55;;
7881;SDS011;3986;41.884;23.466;2024-02-16T13:36:11;54.63;;;15.18;;
7881;SDS011;3986;41.884;23.466;2024-02-16T13:38:37;63.50;;;17.67;;
7881;SDS011;3986;41.884;23.466;2024-02-16T13:41:06;66.03;;;14.40;;
7881;SDS011;3986;41.884;23.466;2024-02-16T13:43:32;74.72;;;20.10;;
7881;SDS011;3986;41.884;23.466;2024-02-16T13:45:59;75.30;;;13.70;;
7881;SDS011;3986;41.884;23.466;2024-02-16T13:48:26;80.45;;;13.63;;
7881;SDS011;3986;41.884;23.466;2024-02-16T13:50:55;82.25;;;17.10;;
7881;SDS011;3986;41.884;23.466;2024-02-16T13:53:22;76.35;;;22.02;;
7881;SDS011;3986;41.884;23.466;2024-02-16T13:55:49;67.90;;;17.00;;
7881;SDS011;3986;41.884;23.466;2024-02-16T13:58:17;90.15;;;22.77;;
7881;SDS011;3986;41.884;23.466;2024-02-16T14:00:43;79.00;;;25.25;;
7881;SDS011;3986;41.884;23.466;2024-02-16T14:03:10;72.72;;;33.28;;
7881;SDS011;3986;41.884;23.466;2024-02-16T14:05:40;101.72;;;26.75;;
7881;SDS011;3986;41.884;23.466;2024-02-16T14:08:10;70.70;;;25.13;;
7881;SDS011;3986;41.884;23.466;2024-02-16T14:10:37;107.85;;;27.73;;
7881;SDS011;3986;41.884;23.466;2024-02-16T14:13:04;107.50;;;28.58;;
7881;SDS011;3986;41.884;23.466;2024-02-16T14:15:32;105.63;;;25.77;;
7881;SDS011;3986;41.884;23.466;2024-02-16T14:17:59;99.53;;;32.22;;
7881;SDS011;3986;41.884;23.466;2024-02-16T14:20:27;63.50;;;30.05;;
7881;SDS011;3986;41.884;23.466;2024-02-16T14:22:53;83.47;;;26.98;;
7881;SDS011;3986;41.884;23.466;2024-02-16T14:25:20;89.32;;;27.95;;
7881;SDS011;3986;41.884;23.466;2024-02-16T14:27:47;77.88;;;19.15;;
7881;SDS011;3986;41.884;23.466;2024-02-16T14:30:14;98.55;;;23.02;;